Marbleton, Wyoming
Current Conditions -  °F | °C
As of 6:55 AM on Wednesday 26 Nov 2014 (Local Time) from KPNA Reporting Station
Broken Clouds Broken Clouds  
Wind Chill: 24°   Ceiling: 6000
Heat Index: 34°   Visibility: 10mi
Dew Point: 32°   Wind: 15mph
Humidity: 93%   Direction: 310°NW
Pressure: 30.19"   Gusts: NA
Location:  42.5665°N, 110.311°W
Report Text: KPNA 261355Z AUTO 31013KT 10SM BKN060 01/00 A3019 RMK AO2
Loading
Personal Weather Stations






























Interactive Weather Map New forecast layout! Learn more

10-Day Weather Forecast

Advertisements
Track Severe Weather on mobile